• Join FlightAware (Why Join?)
  • Login
  • US Flag 
06:15AM EDT


 

Airport Tracker/Info


-or-


 

Live Flight TrackerFlight Track Log ✈ N10CW ✈ 23-Sep-2013 ✈ KIGQ - KAPF

Flight Track Log - Related Links

Times and Time Zones

All times are in EDT time to prevent confusion due to time zone crossing. See the N10CW flight status page for this flight to view local times or setup timezone preferences in your user account.

Time Position Orientation Groundspeed Altitude Reporting Facility
EDT Latitude Longitude Course Direction KTS MPH feet Rate Location/Type
10:11AM 41.5000 -87.5333 257° West 144 166 1,800  Level Chicago TRACON
10:12AM 41.4883 -87.6006 257° West 184 212 3,300 1,320 Climbing Chicago Center
10:13AM 41.4844 -87.6625 265° West 175 201 5,000 1,620 Climbing Chicago Center
10:14AM 41.4797 -87.7228 264° West 167 192 6,700 1,620 Climbing Chicago Center
10:15AM 41.4628 -87.7778 248° West 171 197 8,400 1,560 Climbing Chicago Center
10:16AM 41.4300 -87.8431 236° Southwest 176 203 10,000 720 Climbing Chicago Center
10:17AM 41.3772 -87.8811 208° Southwest 238 274 10,000 120 Level Chicago Center
10:19AM 41.3044 -87.8869 183° South 258 297 10,300 1,140 Climbing Chicago Center
10:20AM 41.2408 -87.8922 184° South 231 266 12,400 1,920 Climbing Chicago Center
10:21AM 41.1933 -87.8897 178° South 177 204 14,400 1,680 Climbing Chicago Center
10:22AM 41.1478 -87.8881 178° South 166 191 16,000 1,620 Climbing Chicago Center
10:23AM 41.0919 -87.8850 178° South 169 194 17,800 1,440 Climbing Chicago Center
10:24AM 41.0436 -87.8842 179° South 171 197 19,000 1,200 Climbing Chicago Center
10:25AM 40.9956 -87.8828 179° South 173 199 20,400 1,200 Climbing Chicago Center
10:26AM 40.9472 -87.8811 179° South 173 199 21,600 1,140 Climbing Chicago Center
10:27AM 40.8967 -87.8803 179° South 180 207 22,800 1,140 Climbing Chicago Center
10:28AM 40.8461 -87.8786 179° South 183 211 24,000 1,140 Climbing Chicago Center
10:29AM 40.7842 -87.8783 180° South 185 213 25,200 1,080 Climbing Chicago Center
10:30AM 40.7319 -87.8764 178° South 187 215 26,300 960 Climbing Chicago Center
10:31AM 40.6789 -87.8750 179° South 190 219 27,300 900 Climbing Chicago Center
10:32AM 40.6244 -87.8689 175° South 196 226 28,200 720 Climbing Chicago Center
10:33AM 40.5694 -87.8522 167° South 201 231 28,900 720 Climbing Chicago Center
10:34AM 40.5022 -87.8333 168° South 207 238 29,800 840 Climbing Chicago Center
10:35AM 40.4436 -87.8181 169° South 212 244 30,700 540 Climbing Chicago Center
10:36AM 40.3864 -87.8017 168° South 212 244 31,000 120 Climbing Chicago Center
10:37AM 40.3192 -87.7847 169° South 241 277 31,000  Level Chicago Center
10:38AM 40.2425 -87.7619 167° South 279 321 31,000  Level Chicago Center
10:39AM 40.1506 -87.7358 168° South 299 344 31,000  Level Chicago Center
10:40AM 40.0831 -87.7183 169° South 304 350 31,000  Level Indianapolis Center
10:41AM 39.9978 -87.6947 168° South 311 358 31,000  Level Indianapolis Center
10:42AM 39.9119 -87.6703 168° South 316 364 31,000  Level Indianapolis Center
10:43AM 39.8089 -87.6425 168° South 316 364 31,000  Level Indianapolis Center
10:44AM 39.7236 -87.6178 167° South 317 365 31,000  Level Indianapolis Center
10:45AM 39.6353 -87.5958 169° South 322 371 31,000  Level Indianapolis Center
10:46AM 39.5492 -87.5717 168° South 319 367 31,000  Level Indianapolis Center
10:47AM 39.4639 -87.5481 168° South 316 364 31,000  Level Indianapolis Center
10:48AM 39.3775 -87.5250 168° South 318 366 31,000  Level Indianapolis Center
10:49AM 39.2731 -87.4967 168° South 320 368 31,000  Level Indianapolis Center
10:50AM 39.1861 -87.4722 168° South 322 371 31,000  Level Indianapolis Center
10:51AM 39.1050 -87.4519 169° South 321 369 31,000  Level Indianapolis Center
10:52AM 39.0000 -87.4228 168° South 320 368 31,000  Level Indianapolis Center
10:53AM 38.9108 -87.3997 169° South 325 374 31,000  Level Indianapolis Center
10:55AM 38.8231 -87.3753 168° South 323 372 31,000  Level Indianapolis Center
10:56AM 38.7347 -87.3519 168° South 322 371 31,000  Level Indianapolis Center
10:57AM 38.6456 -87.3286 168° South 325 374 31,000  Level Indianapolis Center
10:58AM 38.5575 -87.3056 168° South 323 372 31,000  Level Indianapolis Center
10:59AM 38.4519 -87.2775 168° South 323 372 31,000  Level Indianapolis Center
11:00AM 38.3644 -87.2561 169° South 323 372 31,000  Level Indianapolis Center
11:01AM 38.2761 -87.2336 169° South 327 376 31,000  Level Indianapolis Center
11:02AM 38.1889 -87.2094 168° South 325 374 31,000  Level Indianapolis Center
11:03AM 38.1017 -87.1856 168° South 323 372 31,000  Level Indianapolis Center
11:04AM 37.9956 -87.1581 168° South 325 374 31,000  Level Indianapolis Center
11:05AM 37.9078 -87.1344 168° South 323 372 31,000  Level Indianapolis Center
11:06AM 37.8200 -87.1117 168° South 322 371 31,000  Level Indianapolis Center
11:07AM 37.7317 -87.0886 168° South 322 371 31,000  Level Indianapolis Center
11:08AM 37.6439 -87.0664 169° South 323 372 31,000  Level Indianapolis Center
11:09AM 37.5558 -87.0436 168° South 322 371 31,000  Level Indianapolis Center
11:11AM 37.4053 -87.0072 169° South 318 366 31,000  Level Memphis Center
11:12AM 37.3172 -86.9850 169° South 318 366 31,000  Level Memphis Center
11:12AM 37.2778 -86.9739 167° South 321 369 31,000  Level Indianapolis Center
11:13AM 37.1892 -86.9506 168° South 322 371 31,000  Level Indianapolis Center
11:14AM 37.1022 -86.9275 168° South 318 366 31,000  Level Indianapolis Center
11:15AM 37.0131 -86.9061 169° South 322 371 31,000  Level Indianapolis Center
11:16AM 36.9256 -86.8822 168° South 320 368 31,000  Level Indianapolis Center
11:17AM 36.8372 -86.8606 169° South 320 368 31,000  Level Indianapolis Center
11:18AM 36.7347 -86.8339 168° South 319 367 31,000  Level Indianapolis Center
11:19AM 36.6467 -86.8117 169° South 319 367 31,000  Level Indianapolis Center
11:20AM 36.5572 -86.7892 169° South 322 371 31,000  Level Indianapolis Center
11:22AM 36.4567 -86.7603 167° South 318 366 31,000  Level Memphis Center
11:23AM 36.3558 -86.7339 168° South 329 379 31,000  Level Memphis Center
11:24AM 36.2633 -86.7097 168° South 337 388 31,000  Level Memphis Center
11:25AM 36.1753 -86.6931 171° South 332 382 31,000  Level Memphis Center
11:26AM 36.0889 -86.6608 163° South 327 376 31,000  Level Memphis Center
11:27AM 36.0042 -86.6186 158° South 327 376 31,000  Level Memphis Center
11:28AM 35.9278 -86.5786 157° South 335 386 31,000  Level Memphis Center
11:29AM 35.8411 -86.5364 158° South 335 386 31,000  Level Memphis Center
11:31AM 35.6097 -86.4219 158° South 340 391 31,000  Level Atlanta Center
11:32AM 35.5250 -86.3786 157° South 333 383 31,000  Level Atlanta Center
11:33AM 35.4403 -86.3381 159° South 328 377 31,000  Level Atlanta Center
11:34AM 35.3514 -86.2947 158° South 334 384 31,000  Level Atlanta Center
11:35AM 35.2644 -86.2517 158° South 334 384 31,000  Level Atlanta Center
11:36AM 35.1733 -86.2086 159° South 329 379 31,000  Level Atlanta Center
11:37AM 35.0886 -86.1683 159° South 329 379 31,000  Level Atlanta Center
11:38AM 35.0119 -86.1361 161° South 334 384 31,000  Level Atlanta Center
11:39AM 34.9250 -86.0908 157° South 334 384 31,000  Level Atlanta Center
11:40AM 34.8339 -86.0456 158° South 328 377 31,000  Level Atlanta Center
11:41AM 34.7469 -86.0031 158° South 328 377 31,000  Level Atlanta Center
11:42AM 34.6808 -85.9686 157° South 328 377 31,000  Level Atlanta Center
11:43AM 34.5897 -85.9261 159° South 332 382 31,000  Level Atlanta Center
11:44AM 34.5047 -85.8864 159° South 327 376 31,000  Level Atlanta Center
11:45AM 34.4197 -85.8442 158° South 327 376 31,000  Level Atlanta Center
11:46AM 34.3325 -85.8072 161° South 327 376 31,000  Level Atlanta Center
11:47AM 34.2475 -85.7678 159° South 319 367 31,000  Level Atlanta Center
11:48AM 34.1647 -85.7308 160° South 325 374 31,000  Level Atlanta Center
11:49AM 34.0797 -85.6867 157° South 330 380 31,000  Level Atlanta Center
11:50AM 33.9944 -85.6500 160° South 325 374 31,000  Level Atlanta Center
11:51AM 33.9117 -85.6108 159° South 325 374 31,000  Level Atlanta Center
11:52AM 33.8286 -85.5742 160° South 325 374 31,000  Level Atlanta Center
11:53AM 33.7475 -85.5353 158° South 325 374 31,000  Level Atlanta Center
11:54AM 33.6644 -85.4964 159° South 325 374 31,000  Level Atlanta Center
11:55AM 33.5817 -85.4575 159° South 325 374 31,000  Level Atlanta Center
11:56AM 33.4986 -85.4189 159° South 325 374 31,000  Level Atlanta Center
11:57AM 33.4194 -85.3828 159° South 318 366 31,000  Level Atlanta Center
11:58AM 33.3344 -85.3442 159° South 318 366 31,000  Level Atlanta Center
11:59AM 33.2617 -85.3108 159° South 318 366 31,000  Level Atlanta Center
12:00PM 33.1786 -85.2722 159° South 318 366 31,000  Level Atlanta Center
12:01PM 33.0975 -85.2339 158° South 318 366 31,000  Level Atlanta Center
12:02PM 33.0103 -85.1908 158° South 313 360 31,000  Level Atlanta Center
12:03PM 32.9250 -85.1622 164° South 313 360 31,000  Level Atlanta Center
12:04PM 32.8481 -85.1442 169° South 308 354 31,000  Level Atlanta Center
12:05PM 32.7647 -85.1133 163° South 308 354 31,000  Level Atlanta Center
12:06PM 32.6731 -85.0778 162° South 308 354 31,000  Level Atlanta Center
12:07PM 32.5878 -85.0472 163° South 315 362 31,000  Level Atlanta Center
12:08PM 32.5044 -85.0192 164° South 314 361 31,000  Level Atlanta Center
12:09PM 32.4233 -84.9936 165° South 319 367 31,000  Level Atlanta Center
12:10PM 32.3483 -84.9658 163° South 319 367 31,000  Level Atlanta Center
12:13PM 32.1528 -84.8997 164° South 305 351 31,000  Level Jacksonville Center
12:14PM 32.0739 -84.8736 164° South 305 351 31,000  Level Jacksonville Center
12:15PM 31.9908 -84.8447 164° South 305 351 31,000  Level Jacksonville Center
12:16PM 31.9014 -84.8208 167° South 305 351 31,000  Level Jacksonville Center
12:17PM 31.8203 -84.7922 163° South 300 345 31,000  Level Jacksonville Center
12:18PM 31.7350 -84.7661 165° South 300 345 31,000  Level Jacksonville Center
12:19PM 31.6542 -84.7378 163° South 300 345 31,000  Level Jacksonville Center
12:20PM 31.5731 -84.7117 165° South 300 345 31,000  Level Jacksonville Center
12:21PM 31.4900 -84.6858 165° South 300 345 31,000  Level Jacksonville Center
12:22PM 31.4089 -84.6550 162° South 300 345 31,000  Level Jacksonville Center
12:23PM 31.3278 -84.6267 163° South 300 345 31,000  Level Jacksonville Center
12:24PM 31.2469 -84.6008 165° South 300 345 31,000  Level Jacksonville Center
12:25PM 31.1658 -84.5750 165° South 300 345 31,000  Level Jacksonville Center
12:26PM 31.0825 -84.5494 165° South 300 345 31,000  Level Jacksonville Center
12:27PM 31.0014 -84.5214 163° South 300 345 31,000  Level Jacksonville Center
12:28PM 30.9203 -84.4933 163° South 300 345 31,000  Level Jacksonville Center
12:29PM 30.8414 -84.4678 164° South 300 345 31,000  Level Jacksonville Center
12:30PM 30.7603 -84.4422 165° South 300 345 31,000  Level Jacksonville Center
12:31PM 30.6833 -84.4192 166° South 300 345 31,000  Level Jacksonville Center
12:32PM 30.6042 -84.3939 165° South 300 345 31,000 -60 Level Jacksonville Center
12:33PM 30.5294 -84.3564 157° South 295 339 30,900  Descending Jacksonville Center
12:34PM 30.4569 -84.3094 151° Southeast 295 339 31,000  Climbing Jacksonville Center
12:35PM 30.3864 -84.2628 150° Southeast 290 334 31,000  Level Jacksonville Center
12:36PM 30.3161 -84.2161 150° Southeast 295 339 31,000  Level Jacksonville Center
12:37PM 30.2539 -84.1792 153° Southeast 286 329 31,000  Level Jacksonville Center
12:38PM 30.1894 -84.1253 144° Southeast 286 329 31,000  Level Jacksonville Center
12:39PM 30.1381 -84.0503 128° Southeast 292 336 31,000  Level Jacksonville Center
12:40PM 30.0864 -83.9800 130° Southeast 292 336 31,000  Level Jacksonville Center
12:41PM 30.0350 -83.9050 128° Southeast 292 336 31,000  Level Jacksonville Center
12:42PM 29.9853 -83.8278 127° Southeast 292 336 31,000  Level Jacksonville Center
12:43PM 29.9336 -83.7578 130° Southeast 292 336 31,000  Level Jacksonville Center
12:44PM 29.8800 -83.6806 129° Southeast 298 343 31,000  Level Jacksonville Center
12:45PM 29.8281 -83.6061 129° Southeast 298 343 31,000  Level Jacksonville Center
12:46PM 29.7742 -83.5292 129° Southeast 304 350 31,000  Level Jacksonville Center
12:47PM 29.7203 -83.4522 129° Southeast 304 350 31,000  Level Jacksonville Center
12:48PM 29.6664 -83.3778 130° Southeast 304 350 31,000  Level Jacksonville Center
12:49PM 29.6103 -83.2986 129° Southeast 309 356 31,000  Level Jacksonville Center
12:50PM 29.5542 -83.2125 127° Southeast 303 349 31,000  Level Jacksonville Center
12:51PM 29.4958 -83.1336 130° Southeast 309 356 31,000  Level Jacksonville Center
12:52PM 29.4458 -83.0619 129° Southeast 314 361 31,000  Level Jacksonville Center
12:53PM 29.3917 -82.9831 128° Southeast 314 361 31,000  Level Jacksonville Center
12:54PM 29.3353 -82.9044 129° Southeast 314 361 31,000  Level Jacksonville Center
12:55PM 29.2811 -82.8258 128° Southeast 314 361 31,000  Level Jacksonville Center
12:56PM 29.2247 -82.7475 130° Southeast 314 361 31,000  Level Jacksonville Center
12:57PM 29.1703 -82.6689 128° Southeast 314 361 31,000  Level Jacksonville Center
12:58PM 29.1158 -82.5908 129° Southeast 314 361 31,000  Level Jacksonville Center
12:59PM 29.0592 -82.5125 130° Southeast 314 361 31,000  Level Jacksonville Center
01:00PM 29.0028 -82.4344 130° Southeast 314 361 31,000 -180 Level Jacksonville Center
01:01PM 28.9481 -82.3564 129° Southeast 314 361 30,700 -480 Descending Jacksonville Center
01:03PM 28.8353 -82.2011 130° Southeast 309 356 29,700 -600 Descending Miami Center
01:04PM 28.7797 -82.1250 130° Southeast 314 361 28,900 -900 Descending Miami Center
01:05PM 28.7242 -82.0467 129° Southeast 314 361 27,900 -960 Descending Miami Center
01:06PM 28.6686 -81.9686 129° Southeast 314 361 27,000 -480 Descending Miami Center
01:07PM 28.6150 -81.8928 129° Southeast 314 361 27,000  Level Miami Center
01:08PM 28.5611 -81.8242 132° Southeast 314 361 27,000  Level Miami Center
01:09PM 28.4872 -81.7903 158° South 284 327 27,000 -120 Level Miami Center
01:10PM 28.4086 -81.7678 166° South 284 327 26,800 -660 Descending Miami Center
01:11PM 28.3300 -81.7478 167° South 284 327 25,700 -900 Descending Miami Center
01:12PM 28.2558 -81.7258 165° South 289 333 25,000 -480 Descending Miami Center
01:13PM 28.1814 -81.7039 165° South 289 333 24,800 -420 Descending Miami Center
01:14PM 28.1008 -81.6814 166° South 284 327 24,200 -780 Descending Miami Center
01:15PM 28.0281 -81.6736 175° South 289 333 23,300 -1,020 Descending Miami Center
01:16PM 27.9564 -81.6942 194° South 273 314 22,200 -1,080 Descending Miami Center
01:17PM 27.8867 -81.7169 196° South 267 307 21,200 -1,020 Descending Miami Center
01:18PM 27.8214 -81.7378 196° South 262 302 20,200 -1,080 Descending Miami Center
01:19PM 27.7433 -81.7603 194° South 262 302 19,100 -1,080 Descending Miami Center
01:20PM 27.6722 -81.7664 184° South 262 302 18,100 -1,380 Descending Miami Center
01:21PM 27.6053 -81.7658 180° South 262 302 16,400 -1,800 Descending Miami Center
01:22PM 27.5314 -81.7347 160° South 262 302 14,500 -1,920 Descending Miami Center
01:23PM 27.4675 -81.7064 159° South 256 295 12,600 -1,920 Descending Miami Center
01:24PM 27.4039 -81.6731 155° Southeast 256 295 10,700 -1,800 Descending Miami Center
01:25PM 27.3422 -81.6450 158° South 249 287 9,000 -900 Descending Miami Center
01:26PM 27.2847 -81.6169 157° South 239 275 9,000  Level Miami Center
01:27PM 27.2272 -81.5911 158° South 234 269 9,000  Level Miami Center
01:28PM 27.1678 -81.5606 155° Southeast 229 264 9,000  Level Miami Center
01:29PM 27.1100 -81.5328 157° South 229 264 9,000  Level Miami Center
01:30PM 27.0525 -81.5069 158° South 229 264 9,000  Level Miami Center
01:31PM 26.9969 -81.4792 156° South 229 264 9,000  Level Miami Center
01:32PM 26.9394 -81.4489 155° Southeast 229 264 9,000  Level Miami Center
01:33PM 26.8819 -81.4211 157° South 229 264 9,000 -300 Level Miami Center
01:34PM 26.8286 -81.3933 155° Southeast 229 264 8,500 -540 Descending Miami Center
01:36PM 26.6921 -81.4709 197° South  Level Estimated
01:43PM 26.1974 -81.7504 194° South  Level Estimated
01:44PM 26.1500 -81.7667 194° South  Level FlightAware Approximate
01:45PM 26.1524 -81.7756 194° South  Level Estimated
01:46PM 26.1524 -81.7756 194° South  Level Estimated
01:47PM 26.1524 -81.7756 194° South  Level Estimated
01:48PM 26.1524 -81.7756 194° South  Level Estimated
01:49PM 26.1524 -81.7756 194° South  Level Estimated
01:50PM 26.1524 -81.7756 194° South  Level Estimated
01:51PM 26.1524 -81.7756 194° South  Level Estimated
01:52PM 26.1524 -81.7756 194° South  Level Estimated
01:53PM 26.1524 -81.7756 194° South  Level Estimated
01:54PM 26.1524 -81.7756 194° South  Level Estimated
01:55PM 26.1524 -81.7756 194° South  Level Estimated
01:56PM 26.1524 -81.7756 194° South  Level Estimated
01:57PM 26.1524 -81.7756 194° South  Level Estimated
01:58PM 26.1524 -81.7756 194° South  Level Estimated
01:59PM 26.1524 -81.7756 194° South  Level Estimated